Hiko, Nevada
Current Conditions -  °F | °C
As of 2:58 AM on Friday 28 Nov 2014 (Local Time) from KINS Reporting Station
Clear Clear  
Wind Chill:   Ceiling: Unl
Heat Index:   Visibility: 10mi
Dew Point: -14°   Wind: 0mph
Humidity: 37%   Direction: NA
Pressure: 30.13"   Gusts: NA
Location:  37.6°N, 115.23°W
Report Text: KINS 281058Z AUTO 00000KT 10SM CLR 00/M13 A3013 RMK AO2 SLP192 T10031135 $
Loading
Personal Weather Stations






























Interactive Weather Map New forecast layout! Learn more

10-Day Weather Forecast

Advertisements
Track Severe Weather on mobile